Time;durP1;ratioP1;P1;durP2;ratioP2;P2;SDS_P1;SDS_P2;PMS_P1;PMS_P2;Temp;Humidity;BMP_temperature;BMP_pressure;BME280_temperature;BME280_humidity;BME280_pressure;Samples;Min_cycle;Max_cycle;Signal;HPM_P1;HPM_P2
2023/08/21 00:02:20;;;;;;;8.00;2.80;;;30.50;99.90;;;;;;4973815;28;20062;-56
2023/08/21 00:04:46;;;;;;;6.22;2.60;;;30.60;99.90;;;;;;4971321;28;20113;-56
2023/08/21 00:07:12;;;;;;;5.60;2.65;;;30.60;99.90;;;;;;4981234;28;20026;-56
2023/08/21 00:09:38;;;;;;;4.55;2.88;;;30.50;99.90;;;;;;4971504;28;20034;-56
2023/08/21 00:12:04;;;;;;;5.82;2.60;;;30.50;99.90;;;;;;4987927;28;20019;-56
2023/08/21 00:14:30;;;;;;;6.18;2.97;;;30.50;99.90;;;;;;4971885;28;20041;-56
2023/08/21 00:16:56;;;;;;;5.50;2.80;;;30.50;99.90;;;;;;4977009;28;20023;-56
2023/08/21 00:19:22;;;;;;;4.13;2.30;;;30.50;99.90;;;;;;4972416;28;20031;-56
2023/08/21 00:21:47;;;;;;;6.63;2.78;;;30.50;99.90;;;;;;4971097;28;20101;-56
2023/08/21 00:24:13;;;;;;;5.63;2.03;;;30.50;99.90;;;;;;4977550;28;20390;-56
2023/08/21 00:26:39;;;;;;;3.10;2.20;;;30.50;99.90;;;;;;4980387;28;20026;-57
2023/08/21 00:29:05;;;;;;;7.60;2.83;;;30.50;99.90;;;;;;4972353;28;20383;-57
2023/08/21 00:31:31;;;;;;;3.40;2.22;;;30.50;99.90;;;;;;4971737;28;20034;-56
2023/08/21 00:33:56;;;;;;;3.08;2.35;;;30.50;99.90;;;;;;4983713;28;20030;-57
2023/08/21 00:36:22;;;;;;;4.13;2.30;;;30.50;99.90;;;;;;4972530;28;20463;-56
2023/08/21 00:38:48;;;;;;;5.47;2.60;;;30.50;99.90;;;;;;4972084;28;20027;-56
2023/08/21 00:41:14;;;;;;;4.38;2.38;;;30.50;99.90;;;;;;4970248;28;20493;-56
2023/08/21 00:43:40;;;;;;;6.32;2.72;;;30.50;99.90;;;;;;4977343;28;20039;-57
2023/08/21 00:46:06;;;;;;;4.25;2.70;;;30.50;99.90;;;;;;4972219;28;20027;-57
2023/08/21 00:48:32;;;;;;;4.95;2.42;;;30.50;99.90;;;;;;4972641;28;20019;-57
2023/08/21 00:50:58;;;;;;;6.63;2.42;;;30.50;99.90;;;;;;4972610;28;20022;-57
2023/08/21 00:53:24;;;;;;;7.93;3.03;;;30.50;99.90;;;;;;4972647;28;20038;-57
2023/08/21 00:55:50;;;;;;;3.90;2.30;;;30.50;99.90;;;;;;4972422;28;20506;-58
2023/08/21 00:58:17;;;;;;;4.80;2.45;;;30.50;99.90;;;;;;4971258;28;20105;-57
2023/08/21 01:00:47;;;;;;;3.95;2.65;;;30.50;99.90;;;;;;4982038;28;20027;-57
2023/08/21 01:03:13;;;;;;;3.95;2.30;;;30.50;99.90;;;;;;4972897;28;20053;-57
2023/08/21 01:05:39;;;;;;;3.67;2.22;;;30.50;99.90;;;;;;4973179;28;20027;-57
2023/08/21 01:08:40;;;;;;;3.42;2.30;;;30.50;99.90;;;;;;4969790;28;20135;-57
2023/08/21 01:11:19;;;;;;;6.28;2.63;;;30.50;99.90;;;;;;4977201;28;20452;-57
2023/08/21 01:14:09;;;;;;;6.53;2.60;;;30.50;99.90;;;;;;4985207;28;20027;-58
2023/08/21 01:16:37;;;;;;;7.30;3.00;;;30.60;99.90;;;;;;4965262;28;20035;-56
2023/08/21 01:19:07;;;;;;;4.43;2.58;;;30.60;99.90;;;;;;4979187;28;20023;-57
2023/08/21 01:21:33;;;;;;;5.78;2.08;;;30.60;99.90;;;;;;4973807;28;20085;-57
2023/08/21 01:23:59;;;;;;;6.75;2.85;;;30.60;99.90;;;;;;4975216;28;20042;-57
2023/08/21 01:26:25;;;;;;;3.78;2.75;;;30.60;99.90;;;;;;4974886;28;20502;-57
2023/08/21 01:28:51;;;;;;;5.28;2.70;;;30.60;99.90;;;;;;4979887;28;20399;-57
2023/08/21 01:31:30;;;;;;;3.78;2.60;;;30.60;99.90;;;;;;4976833;28;20035;-58
2023/08/21 01:34:00;;;;;;;4.10;2.78;;;30.60;99.90;;;;;;4975008;28;20110;-58
2023/08/21 01:36:26;;;;;;;6.43;2.70;;;30.60;99.90;;;;;;4982306;28;20018;-57
2023/08/21 01:38:53;;;;;;;4.55;2.90;;;30.50;99.90;;;;;;4981431;28;20030;-57
2023/08/21 01:41:18;;;;;;;2.80;2.50;;;30.60;99.90;;;;;;4976351;28;20456;-57
2023/08/21 01:43:44;;;;;;;4.85;2.22;;;30.60;99.90;;;;;;4973953;28;20316;-57
2023/08/21 01:46:10;;;;;;;5.63;2.80;;;30.60;99.90;;;;;;4983333;28;20030;-57
2023/08/21 01:48:36;;;;;;;7.15;2.80;;;30.60;99.90;;;;;;4975402;28;20015;-58
2023/08/21 01:51:02;;;;;;;4.10;2.20;;;30.60;99.90;;;;;;4976328;28;20039;-57
2023/08/21 01:53:28;;;;;;;3.78;2.47;;;30.60;99.90;;;;;;4974154;28;20034;-58
2023/08/21 01:55:54;;;;;;;7.18;2.90;;;30.50;99.90;;;;;;4980624;28;20077;-57
2023/08/21 01:58:20;;;;;;;3.53;2.45;;;30.50;99.90;;;;;;4975306;28;20034;-57
2023/08/21 02:00:47;;;;;;;4.90;2.35;;;30.50;99.90;;;;;;4976752;28;20106;-57
2023/08/21 02:03:13;;;;;;;6.78;2.17;;;30.60;99.90;;;;;;4992629;28;20046;-57
2023/08/21 02:05:39;;;;;;;7.20;2.10;;;30.50;99.90;;;;;;4975545;28;20549;-56
2023/08/21 02:08:06;;;;;;;2.47;2.05;;;30.60;99.90;;;;;;4975618;28;20505;-57
2023/08/21 02:10:32;;;;;;;3.72;2.10;;;30.50;99.90;;;;;;4974088;28;20041;-56
2023/08/21 02:12:58;;;;;;;5.30;2.30;;;30.50;99.90;;;;;;5000103;28;20102;-56
2023/08/21 02:15:24;;;;;;;4.80;2.40;;;30.50;99.90;;;;;;4976020;28;20447;-56
2023/08/21 02:17:49;;;;;;;4.03;2.35;;;30.50;99.90;;;;;;4976122;28;20167;-56
2023/08/21 02:20:15;;;;;;;5.00;1.90;;;30.50;99.90;;;;;;4973109;28;20549;-56
2023/08/21 02:22:41;;;;;;;4.30;2.30;;;30.60;99.90;;;;;;4984922;28;20023;-56
2023/08/21 02:25:07;;;;;;;6.72;2.50;;;30.50;99.90;;;;;;4974594;28;20035;-57
2023/08/21 02:27:33;;;;;;;3.83;2.22;;;30.50;99.90;;;;;;4975719;28;20015;-57
2023/08/21 02:29:59;;;;;;;4.30;2.53;;;30.50;99.90;;;;;;4974041;28;20037;-56
2023/08/21 02:32:24;;;;;;;3.20;1.90;;;30.50;99.90;;;;;;4974934;28;20053;-57
2023/08/21 02:34:50;;;;;;;3.00;1.90;;;30.50;99.90;;;;;;4974962;28;20113;-57
2023/08/21 02:37:16;;;;;;;3.25;1.60;;;30.50;99.90;;;;;;4974716;28;20034;-57
2023/08/21 02:39:42;;;;;;;3.20;2.08;;;30.50;99.90;;;;;;4975733;28;20082;-57
2023/08/21 02:42:08;;;;;;;3.53;1.98;;;30.50;99.90;;;;;;4975422;28;20019;-57
2023/08/21 02:44:33;;;;;;;5.97;2.03;;;30.50;99.90;;;;;;4975490;28;20046;-57
2023/08/21 02:46:59;;;;;;;6.82;1.90;;;30.40;99.90;;;;;;4975563;28;20023;-57
2023/08/21 02:49:25;;;;;;;3.25;1.63;;;30.40;99.90;;;;;;4975381;28;20023;-57
2023/08/21 02:51:51;;;;;;;4.43;2.13;;;30.40;99.90;;;;;;4974119;28;20039;-57
2023/08/21 02:54:16;;;;;;;3.67;1.75;;;30.40;99.90;;;;;;4975347;28;20023;-57
2023/08/21 02:56:42;;;;;;;4.18;2.25;;;30.40;99.90;;;;;;4975235;28;20541;-58
2023/08/21 02:59:08;;;;;;;6.95;2.58;;;30.40;99.90;;;;;;4975219;28;20595;-57
2023/08/21 03:01:35;;;;;;;5.22;2.55;;;30.40;99.90;;;;;;4975384;28;20113;-57
2023/08/21 03:04:01;;;;;;;6.60;2.20;;;30.40;99.90;;;;;;4975371;28;20118;-57
2023/08/21 03:06:27;;;;;;;5.73;2.70;;;30.30;99.90;;;;;;4975168;28;20027;-57
2023/08/21 03:08:53;;;;;;;3.40;2.40;;;30.40;99.90;;;;;;4974951;28;20033;-57
2023/08/21 03:11:18;;;;;;;7.20;3.13;;;30.40;99.90;;;;;;4975139;28;20014;-57
2023/08/21 03:13:44;;;;;;;9.30;2.78;;;30.30;99.90;;;;;;4974810;28;20371;-57
2023/08/21 03:16:10;;;;;;;5.53;2.38;;;30.40;99.90;;;;;;4974914;28;20045;-56
2023/08/21 03:18:55;;;;;;;4.10;2.75;;;30.40;99.90;;;;;;4974950;28;20068;-56
2023/08/21 03:21:22;;;;;;;9.00;3.05;;;30.40;99.90;;;;;;4974929;28;20467;-57
2023/08/21 03:23:57;;;;;;;6.72;2.42;;;30.40;99.90;;;;;;4973417;28;20498;-58
2023/08/21 03:26:23;;;;;;;7.35;3.05;;;30.40;99.90;;;;;;4974744;28;20023;-58
2023/08/21 03:28:49;;;;;;;5.50;2.67;;;30.40;99.90;;;;;;4974671;28;20027;-57
2023/08/21 03:31:15;;;;;;;5.82;2.90;;;30.40;99.90;;;;;;4974742;28;20161;-57
2023/08/21 03:33:41;;;;;;;6.03;2.92;;;30.30;99.90;;;;;;4973302;28;20045;-57
2023/08/21 03:36:07;;;;;;;6.85;2.90;;;30.30;99.90;;;;;;4974503;28;20031;-57
2023/08/21 03:38:33;;;;;;;7.30;2.92;;;30.40;99.90;;;;;;4973651;28;20083;-57
2023/08/21 03:40:59;;;;;;;6.45;3.22;;;30.30;99.90;;;;;;4974336;28;20034;-57
2023/08/21 03:43:25;;;;;;;6.63;2.70;;;30.30;99.90;;;;;;4974240;28;20033;-57
2023/08/21 03:45:51;;;;;;;7.70;2.92;;;30.40;99.90;;;;;;4973513;28;20384;-57
2023/08/21 03:48:17;;;;;;;6.78;2.95;;;30.30;99.90;;;;;;4974259;28;20031;-58
2023/08/21 03:50:43;;;;;;;4.18;2.67;;;30.30;99.90;;;;;;4974374;28;20368;-57
2023/08/21 03:53:08;;;;;;;10.68;3.88;;;30.30;99.90;;;;;;4974210;28;20023;-57
2023/08/21 03:55:34;;;;;;;7.60;3.53;;;30.30;99.90;;;;;;4974361;28;20063;-57
2023/08/21 03:58:01;;;;;;;7.90;3.60;;;30.30;99.90;;;;;;4973948;28;20069;-57
2023/08/21 04:00:26;;;;;;;9.17;3.23;;;30.30;99.90;;;;;;4974648;28;20379;-57
2023/08/21 04:02:52;;;;;;;9.98;3.50;;;30.30;99.90;;;;;;4973681;28;20284;-57
2023/08/21 04:05:18;;;;;;;11.75;3.25;;;30.30;99.90;;;;;;4974010;28;20039;-57
2023/08/21 04:07:44;;;;;;;7.22;2.80;;;30.30;99.90;;;;;;4972865;28;20059;-57
2023/08/21 04:10:10;;;;;;;5.80;3.03;;;30.30;99.90;;;;;;4973930;28;20387;-56
2023/08/21 04:12:35;;;;;;;6.32;3.05;;;30.30;99.90;;;;;;4974240;28;20033;-57
2023/08/21 04:15:01;;;;;;;4.13;2.90;;;30.30;99.90;;;;;;4973886;28;20042;-57
2023/08/21 04:17:27;;;;;;;5.07;2.85;;;30.20;99.90;;;;;;4973670;28;20033;-56
2023/08/21 04:19:53;;;;;;;7.25;2.63;;;30.20;99.90;;;;;;4973941;28;20035;-56
2023/08/21 04:22:19;;;;;;;5.00;2.58;;;30.30;99.90;;;;;;4973587;28;20045;-57
2023/08/21 04:24:44;;;;;;;3.75;2.78;;;30.20;99.90;;;;;;4973639;28;20043;-57
2023/08/21 04:27:10;;;;;;;6.03;2.70;;;30.20;99.90;;;;;;4973590;28;20093;-57
2023/08/21 04:29:36;;;;;;;5.72;2.70;;;30.20;99.90;;;;;;4973992;28;20022;-57
2023/08/21 04:32:02;;;;;;;6.43;2.20;;;30.20;99.90;;;;;;4973736;28;20023;-56
2023/08/21 04:34:28;;;;;;;5.53;2.60;;;30.20;99.90;;;;;;4973599;28;20444;-57
2023/08/21 04:36:53;;;;;;;6.85;2.53;;;30.20;99.90;;;;;;4972174;28;20498;-57
2023/08/21 04:39:19;;;;;;;3.65;2.30;;;30.10;99.90;;;;;;4973399;28;20027;-57
2023/08/21 04:41:45;;;;;;;3.90;1.83;;;30.20;99.90;;;;;;4973496;28;20487;-57
2023/08/21 04:44:11;;;;;;;3.05;1.63;;;30.20;99.90;;;;;;4973207;28;20064;-57
2023/08/21 04:46:36;;;;;;;2.10;1.50;;;30.20;99.90;;;;;;4973591;28;20472;-56
2023/08/21 04:49:02;;;;;;;2.88;1.40;;;30.20;99.90;;;;;;4973321;28;20052;-57
2023/08/21 04:51:28;;;;;;;2.42;1.42;;;30.10;99.90;;;;;;4973283;28;20038;-57
2023/08/21 04:53:54;;;;;;;2.55;1.80;;;30.10;99.90;;;;;;4972134;28;20038;-57
2023/08/21 04:56:19;;;;;;;5.80;2.35;;;30.20;99.90;;;;;;4973021;28;20047;-56
2023/08/21 04:58:45;;;;;;;4.60;2.00;;;30.10;99.90;;;;;;4973231;28;20033;-57
2023/08/21 05:01:12;;;;;;;5.15;2.33;;;30.10;99.90;;;;;;4971909;28;20106;-56
2023/08/21 05:03:37;;;;;;;3.87;2.20;;;30.10;99.90;;;;;;4973305;28;20019;-56
2023/08/21 05:06:03;;;;;;;3.20;2.00;;;30.10;99.90;;;;;;4972075;28;20049;-56
2023/08/21 05:08:29;;;;;;;6.13;2.20;;;30.10;99.90;;;;;;4973065;28;20034;-57
2023/08/21 05:10:59;;;;;;;5.10;3.00;;;30.10;99.90;;;;;;4972269;28;20021;-56
2023/08/21 05:13:25;;;;;;;5.00;2.38;;;30.10;99.90;;;;;;4973064;28;20103;-56
2023/08/21 05:15:56;;;;;;;5.50;2.28;;;30.10;99.90;;;;;;4973116;28;20022;-56
2023/08/21 05:18:22;;;;;;;5.85;2.58;;;30.10;99.90;;;;;;4973191;28;20011;-56
2023/08/21 05:20:49;;;;;;;10.30;3.37;;;30.10;99.90;;;;;;4972966;28;20050;-56
2023/08/21 05:23:15;;;;;;;6.80;2.97;;;30.10;99.90;;;;;;4972993;28;20605;-56
2023/08/21 05:25:42;;;;;;;6.40;2.38;;;30.10;99.90;;;;;;4972766;28;20811;-56
2023/08/21 05:28:08;;;;;;;7.97;2.45;;;30.10;99.90;;;;;;4973135;28;20015;-56
2023/08/21 05:30:36;;;;;;;10.57;2.50;;;30.10;99.90;;;;;;4972673;28;20030;-56
2023/08/21 05:33:03;;;;;;;8.90;2.50;;;30.00;99.90;;;;;;4973161;28;20408;-56
2023/08/21 05:35:29;;;;;;;7.28;2.53;;;30.00;99.90;;;;;;4972815;28;20019;-56
2023/08/21 05:37:55;;;;;;;7.55;2.42;;;30.00;99.90;;;;;;4972873;28;20068;-56
2023/08/21 05:40:21;;;;;;;8.70;2.75;;;30.00;99.90;;;;;;4972934;28;20026;-56
2023/08/21 05:42:46;;;;;;;4.90;2.60;;;30.00;99.90;;;;;;4972604;28;20027;-56
2023/08/21 05:45:12;;;;;;;15.05;2.88;;;30.00;99.90;;;;;;4972762;28;20102;-56
2023/08/21 05:47:38;;;;;;;7.10;2.40;;;30.00;99.90;;;;;;4972772;28;20034;-56
2023/08/21 05:50:04;;;;;;;6.20;2.13;;;30.00;99.90;;;;;;4972867;28;20030;-57
2023/08/21 05:52:30;;;;;;;8.65;2.30;;;30.00;99.90;;;;;;4972616;28;20113;-56
2023/08/21 05:54:55;;;;;;;11.55;2.90;;;30.00;99.90;;;;;;4971130;28;20054;-56
2023/08/21 05:57:21;;;;;;;7.57;2.28;;;30.00;99.90;;;;;;4972460;28;20015;-56
2023/08/21 05:59:47;;;;;;;11.30;2.78;;;30.00;99.90;;;;;;4972509;28;20038;-56
2023/08/21 06:02:14;;;;;;;4.15;2.25;;;30.00;99.90;;;;;;4972129;28;20054;-56
2023/08/21 06:04:41;;;;;;;5.83;2.53;;;30.00;99.90;;;;;;4972668;28;20041;-56
2023/08/21 06:07:07;;;;;;;5.65;2.60;;;30.00;99.90;;;;;;4972817;28;20011;-57
2023/08/21 06:09:33;;;;;;;5.05;2.70;;;30.00;99.90;;;;;;4976107;28;20098;-57
2023/08/21 06:12:03;;;;;;;7.90;2.80;;;30.00;99.90;;;;;;4975993;28;20395;-57
2023/08/21 06:14:29;;;;;;;9.10;2.92;;;30.00;99.90;;;;;;4976307;28;20102;-57
2023/08/21 06:17:07;;;;;;;5.75;2.75;;;30.00;99.90;;;;;;4972797;28;20031;-58
2023/08/21 06:19:33;;;;;;;6.00;2.75;;;30.00;99.90;;;;;;4975926;28;20109;-57
2023/08/21 06:21:59;;;;;;;8.48;3.60;;;30.00;99.90;;;;;;4975937;28;20115;-57
2023/08/21 06:24:25;;;;;;;6.38;3.20;;;30.00;99.90;;;;;;4975800;28;20067;-56
2023/08/21 06:26:52;;;;;;;7.38;3.13;;;30.00;99.90;;;;;;4975887;28;20082;-57
2023/08/21 06:29:20;;;;;;;5.63;3.35;;;30.00;99.90;;;;;;4975608;28;20378;-57
2023/08/21 06:31:46;;;;;;;5.75;3.47;;;30.00;99.90;;;;;;4975697;28;20019;-57
2023/08/21 06:34:12;;;;;;;8.57;4.20;;;30.00;99.90;;;;;;4974544;28;20110;-57
2023/08/21 06:36:38;;;;;;;9.15;5.07;;;30.10;99.90;;;;;;4975659;28;20063;-56
2023/08/21 06:39:04;;;;;;;7.63;4.68;;;30.10;99.90;;;;;;4975186;28;20039;-56
2023/08/21 06:41:30;;;;;;;7.85;4.97;;;30.10;99.90;;;;;;4975199;28;20117;-56
2023/08/21 06:43:57;;;;;;;9.75;5.65;;;30.10;99.90;;;;;;4975255;28;20114;-56
2023/08/21 06:46:23;;;;;;;7.25;5.18;;;30.10;99.90;;;;;;4974825;28;20191;-56
2023/08/21 06:48:50;;;;;;;8.20;5.13;;;30.00;99.90;;;;;;4983321;28;20133;-56
2023/08/21 06:51:16;;;;;;;10.63;6.50;;;30.10;99.90;;;;;;4974747;28;20027;-56
2023/08/21 06:53:41;;;;;;;9.55;6.88;;;30.00;99.90;;;;;;4973714;28;20084;-56
2023/08/21 06:56:07;;;;;;;13.02;6.35;;;30.10;99.90;;;;;;4974641;28;20031;-56
2023/08/21 06:58:33;;;;;;;8.82;6.25;;;30.10;99.90;;;;;;4974819;28;20031;-56
2023/08/21 07:01:00;;;;;;;12.57;6.47;;;30.10;99.90;;;;;;4966598;28;20549;-57
2023/08/21 07:03:26;;;;;;;9.27;6.22;;;30.10;99.90;;;;;;4972305;28;20486;-57
2023/08/21 07:05:59;;;;;;;11.73;6.40;;;30.10;99.90;;;;;;4972929;28;20022;-57
2023/08/21 07:08:26;;;;;;;9.38;6.75;;;30.10;99.90;;;;;;4972631;28;20027;-55
2023/08/21 07:10:53;;;;;;;14.02;6.85;;;30.10;99.90;;;;;;4972834;28;20132;-55
2023/08/21 07:13:19;;;;;;;9.80;6.75;;;30.10;99.90;;;;;;4972684;28;20027;-56
2023/08/21 07:15:45;;;;;;;10.30;5.72;;;30.10;99.90;;;;;;4970429;28;20501;-55
2023/08/21 07:18:11;;;;;;;6.28;5.15;;;30.10;99.90;;;;;;4972408;28;20506;-55
2023/08/21 07:20:37;;;;;;;11.23;5.82;;;30.10;99.90;;;;;;4986232;28;20101;-55
2023/08/21 07:23:03;;;;;;;11.52;5.70;;;30.10;99.90;;;;;;4970777;28;20451;-56
2023/08/21 07:25:29;;;;;;;10.27;6.38;;;30.10;99.90;;;;;;4972042;28;20094;-57
2023/08/21 07:27:55;;;;;;;8.60;5.35;;;30.10;99.90;;;;;;4972223;28;20019;-54
2023/08/21 07:30:24;;;;;;;9.60;5.77;;;30.10;99.90;;;;;;4972322;28;20027;-54
2023/08/21 07:32:49;;;;;;;10.20;5.10;;;30.20;99.90;;;;;;4970771;28;20019;-54
2023/08/21 07:35:16;;;;;;;11.15;5.28;;;30.10;99.90;;;;;;4972588;28;20037;-55
2023/08/21 07:37:45;;;;;;;7.93;4.80;;;30.10;99.90;;;;;;4972343;28;20106;-55
2023/08/21 07:40:11;;;;;;;5.32;4.30;;;30.10;99.90;;;;;;4971907;28;20494;-55
2023/08/21 07:42:37;;;;;;;8.35;4.70;;;30.20;99.90;;;;;;4970148;28;20549;-56
2023/08/21 07:45:04;;;;;;;9.05;4.80;;;30.20;99.90;;;;;;4972298;28;20368;-56
2023/08/21 07:47:29;;;;;;;9.13;5.50;;;30.20;99.90;;;;;;4971771;28;20382;-56
2023/08/21 07:49:57;;;;;;;7.47;5.47;;;30.20;99.90;;;;;;4970346;28;20229;-55
2023/08/21 07:52:23;;;;;;;10.27;5.85;;;30.20;99.90;;;;;;4969541;28;20054;-54
2023/08/21 07:54:53;;;;;;;8.07;4.88;;;30.20;99.90;;;;;;4972641;28;20061;-54
2023/08/21 07:57:19;;;;;;;7.53;4.93;;;30.30;99.90;;;;;;4974176;28;20126;-54
2023/08/21 07:59:45;;;;;;;10.65;5.22;;;30.30;99.90;;;;;;4973629;28;20527;-54
2023/08/21 08:02:13;;;;;;;9.05;5.57;;;30.30;99.90;;;;;;4973773;28;20078;-54
2023/08/21 08:04:39;;;;;;;7.70;6.28;;;30.30;99.90;;;;;;4972749;28;20135;-54
2023/08/21 08:07:05;;;;;;;10.63;5.43;;;30.40;99.90;;;;;;4969560;28;20106;-55
2023/08/21 08:09:31;;;;;;;9.15;5.10;;;30.30;99.90;;;;;;4963592;28;20117;-55
2023/08/21 08:11:57;;;;;;;9.07;4.97;;;30.40;99.90;;;;;;4973597;28;20023;-55
2023/08/21 08:14:22;;;;;;;11.27;5.10;;;30.30;99.90;;;;;;4973845;28;20078;-55
2023/08/21 08:16:48;;;;;;;10.77;5.50;;;30.40;99.90;;;;;;4973624;28;20010;-55
2023/08/21 08:19:14;;;;;;;10.75;6.00;;;30.40;99.90;;;;;;4973869;28;20022;-56
2023/08/21 08:21:39;;;;;;;10.68;5.85;;;30.40;99.90;;;;;;4973691;28;20060;-56
2023/08/21 08:24:05;;;;;;;9.23;5.72;;;30.40;99.90;;;;;;4972637;28;20046;-57
2023/08/21 08:26:32;;;;;;;10.40;5.40;;;30.40;99.90;;;;;;4973394;28;20042;-58
2023/08/21 08:28:57;;;;;;;8.25;5.13;;;30.50;99.90;;;;;;4972664;28;20027;-62
2023/08/21 08:31:25;;;;;;;9.27;5.38;;;30.50;99.90;;;;;;4973139;28;20117;-61
2023/08/21 08:33:51;;;;;;;14.13;6.30;;;30.50;99.90;;;;;;4973429;28;20026;-61
2023/08/21 08:36:17;;;;;;;13.88;6.00;;;30.50;99.90;;;;;;4988389;28;20228;-62
2023/08/21 08:38:43;;;;;;;8.65;5.38;;;30.50;99.90;;;;;;4973434;28;20030;-61
2023/08/21 08:41:39;;;;;;;10.45;4.57;;;30.50;99.90;;;;;;4973367;28;20502;-61
2023/08/21 08:44:06;;;;;;;10.77;5.97;;;30.50;99.90;;;;;;4973475;28;20039;-59
2023/08/21 08:46:32;;;;;;;8.93;4.82;;;30.50;99.90;;;;;;4973382;28;20105;-60
2023/08/21 08:48:59;;;;;;;9.00;4.60;;;30.50;99.90;;;;;;4971207;28;20517;-60
2023/08/21 08:51:29;;;;;;;6.70;3.85;;;30.60;99.90;;;;;;4973507;28;20387;-60
2023/08/21 08:53:57;;;;;;;14.23;3.90;;;30.60;99.90;;;;;;4988446;28;20019;-60
2023/08/21 08:56:24;;;;;;;10.50;4.45;;;30.60;99.90;;;;;;4972341;28;20034;-60
2023/08/21 08:58:50;;;;;;;8.90;3.90;;;30.60;99.90;;;;;;4973817;28;20029;-60
2023/08/21 09:01:15;;;;;;;13.70;4.18;;;30.60;99.90;;;;;;4973200;28;20051;-59
2023/08/21 09:03:41;;;;;;;8.30;4.20;;;30.60;99.90;;;;;;4972796;28;20046;-59
2023/08/21 09:06:07;;;;;;;14.65;3.47;;;30.60;99.90;;;;;;4973039;28;20118;-59
2023/08/21 09:08:33;;;;;;;12.13;4.07;;;30.60;99.90;;;;;;4971534;28;20030;-57
2023/08/21 09:11:03;;;;;;;11.15;3.80;;;30.60;99.90;;;;;;4972496;28;20109;-59
2023/08/21 09:13:31;;;;;;;23.92;3.45;;;30.60;99.90;;;;;;4973381;28;20107;-58
2023/08/21 09:15:58;;;;;;;18.05;3.60;;;30.60;99.90;;;;;;4973371;28;20383;-59
2023/08/21 09:18:24;;;;;;;12.27;3.47;;;30.60;99.90;;;;;;4972527;28;20058;-59
2023/08/21 09:20:49;;;;;;;15.30;4.05;;;30.70;99.90;;;;;;4972971;28;20058;-59
2023/08/21 09:23:17;;;;;;;9.73;3.55;;;30.70;99.90;;;;;;4972708;28;20019;-63
2023/08/21 09:25:47;;;;;;;9.63;3.88;;;30.70;99.90;;;;;;4972595;28;20037;-62
2023/08/21 09:28:13;;;;;;;9.35;3.25;;;30.70;99.90;;;;;;4972682;28;20034;-62
2023/08/21 09:30:50;;;;;;;6.78;4.18;;;30.80;99.90;;;;;;4972348;28;20030;-60
2023/08/21 09:33:23;;;;;;;9.32;4.05;;;30.80;99.90;;;;;;4973105;28;20027;-58
2023/08/21 09:35:53;;;;;;;13.43;4.55;;;30.80;99.90;;;;;;4973387;28;20059;-59
2023/08/21 09:38:19;;;;;;;8.07;4.22;;;30.90;99.90;;;;;;4973421;28;20479;-60
2023/08/21 09:40:55;;;;;;;9.63;4.43;;;30.90;99.90;;;;;;4973089;28;20074;-59
2023/08/21 09:43:42;;;;;;;10.55;4.40;;;30.90;99.90;;;;;;4975075;28;20483;-59
2023/08/21 09:46:13;;;;;;;8.75;4.13;;;30.90;99.90;;;;;;4977051;28;20037;-58
2023/08/21 09:48:40;;;;;;;9.82;4.35;;;30.90;99.90;;;;;;4976792;28;20027;-57
2023/08/21 09:51:06;;;;;;;6.40;4.25;;;30.90;99.90;;;;;;4976793;28;20052;-58
2023/08/21 09:53:32;;;;;;;9.07;5.40;;;30.90;99.90;;;;;;4975383;28;20031;-58
2023/08/21 09:56:03;;;;;;;9.20;5.50;;;30.90;99.90;;;;;;4991877;28;20077;-58
2023/08/21 09:58:29;;;;;;;11.20;5.40;;;31.00;99.90;;;;;;4976727;28;20030;-58
2023/08/21 10:00:59;;;;;;;12.23;4.45;;;31.00;99.90;;;;;;4976572;28;20050;-57
2023/08/21 10:03:26;;;;;;;9.50;5.03;;;31.00;99.90;;;;;;4976622;28;20027;-57
2023/08/21 10:05:54;;;;;;;10.55;5.05;;;31.00;99.90;;;;;;4976918;28;20065;-57
2023/08/21 10:08:25;;;;;;;10.88;4.43;;;31.00;99.90;;;;;;4976669;28;20023;-58
2023/08/21 10:10:51;;;;;;;12.13;4.90;;;31.00;99.90;;;;;;4976691;28;20051;-58
2023/08/21 10:13:18;;;;;;;6.30;4.50;;;31.00;99.90;;;;;;4976417;28;20030;-57
2023/08/21 10:15:45;;;;;;;7.03;4.22;;;31.00;99.90;;;;;;4976327;28;20103;-57
2023/08/21 10:18:29;;;;;;;10.82;5.22;;;31.00;99.90;;;;;;4991211;28;20113;-59
2023/08/21 10:20:54;;;;;;;7.47;4.07;;;31.00;99.90;;;;;;4976119;28;20050;-57
2023/08/21 10:23:26;;;;;;;9.00;4.43;;;31.00;99.90;;;;;;4976521;28;20487;-58
2023/08/21 10:25:59;;;;;;;14.15;5.00;;;31.00;99.90;;;;;;4976376;28;20058;-57
2023/08/21 10:28:40;;;;;;;10.48;4.68;;;31.00;99.90;;;;;;4976122;28;20019;-58
2023/08/21 10:31:32;;;;;;;16.30;6.00;;;31.00;99.90;;;;;;4976176;28;20034;-57
2023/08/21 10:33:59;;;;;;;14.07;6.45;;;31.00;99.90;;;;;;4975996;28;20105;-58
2023/08/21 10:36:45;;;;;;;13.00;4.68;;;31.00;99.90;;;;;;4975958;28;20019;-59
2023/08/21 10:39:18;;;;;;;12.98;4.85;;;31.00;99.90;;;;;;4981999;28;20046;-58
2023/08/21 10:41:53;;;;;;;10.18;4.45;;;31.00;99.90;;;;;;4975899;28;20480;-57
2023/08/21 10:44:33;;;;;;;9.20;4.40;;;31.00;99.90;;;;;;4975876;28;20074;-57
2023/08/21 10:47:15;;;;;;;12.80;4.50;;;31.00;99.90;;;;;;4974513;28;20026;-57
2023/08/21 10:49:41;;;;;;;12.02;4.63;;;31.10;99.90;;;;;;4975787;28;20031;-59
2023/08/21 10:52:09;;;;;;;18.00;4.38;;;31.10;99.90;;;;;;4975842;28;20080;-58
2023/08/21 10:54:48;;;;;;;8.55;4.47;;;31.10;99.90;;;;;;4975485;28;20030;-58
2023/08/21 10:57:15;;;;;;;10.50;5.18;;;31.10;99.90;;;;;;4975764;28;20056;-58
2023/08/21 10:59:50;;;;;;;16.23;5.68;;;31.10;99.90;;;;;;4975658;28;20019;-58
2023/08/21 11:02:16;;;;;;;11.80;5.43;;;31.20;99.90;;;;;;4975479;28;20487;-58
2023/08/21 11:04:44;;;;;;;10.40;4.80;;;31.20;99.90;;;;;;4975396;28;20038;-58
2023/08/21 11:07:10;;;;;;;8.63;4.88;;;31.30;99.90;;;;;;4975395;28;20019;-57
2023/08/21 11:09:39;;;;;;;13.25;5.63;;;31.20;99.90;;;;;;4975598;28;20030;-58
2023/08/21 11:12:07;;;;;;;17.95;6.40;;;31.30;99.90;;;;;;4975397;28;20102;-58
2023/08/21 11:14:33;;;;;;;17.48;9.98;;;31.30;99.90;;;;;;4975235;28;20471;-57
2023/08/21 11:16:59;;;;;;;13.75;7.53;;;31.30;99.90;;;;;;4975369;28;20030;-57
2023/08/21 11:19:25;;;;;;;11.93;8.07;;;31.30;99.90;;;;;;4975520;28;20019;-58
2023/08/21 11:21:51;;;;;;;12.05;7.10;;;31.30;99.90;;;;;;4975254;28;20089;-58
2023/08/21 11:24:17;;;;;;;10.98;7.90;;;31.30;99.90;;;;;;4975216;28;20094;-58
2023/08/21 11:26:43;;;;;;;13.00;7.38;;;31.30;99.90;;;;;;4975142;28;20023;-58
2023/08/21 11:29:08;;;;;;;14.48;8.75;;;31.40;99.90;;;;;;4975135;28;20037;-58
2023/08/21 11:31:34;;;;;;;14.00;8.77;;;31.40;99.90;;;;;;4975099;28;20029;-58
2023/08/21 11:34:00;;;;;;;9.43;7.05;;;31.40;99.90;;;;;;4973698;28;20042;-58
2023/08/21 11:36:26;;;;;;;10.00;6.95;;;31.40;99.90;;;;;;4975244;28;20078;-58
2023/08/21 11:39:05;;;;;;;14.88;7.38;;;31.40;99.90;;;;;;4974832;28;20018;-58
2023/08/21 11:41:31;;;;;;;11.65;6.50;;;31.40;99.90;;;;;;4974905;28;20023;-58
2023/08/21 11:44:04;;;;;;;12.70;7.35;;;31.30;99.90;;;;;;4974967;28;20041;-58
2023/08/21 11:46:29;;;;;;;10.63;7.18;;;31.30;99.90;;;;;;4974768;28;20030;-57
2023/08/21 11:48:55;;;;;;;15.20;6.50;;;31.30;99.90;;;;;;4974964;28;20383;-58
2023/08/21 11:51:21;;;;;;;11.82;6.60;;;31.30;99.90;;;;;;4989529;28;20390;-59
2023/08/21 11:53:50;;;;;;;18.75;7.30;;;31.30;99.90;;;;;;4973230;28;20073;-58
2023/08/21 11:56:17;;;;;;;10.85;7.25;;;31.30;99.90;;;;;;4973226;28;20521;-58
2023/08/21 11:58:45;;;;;;;13.45;7.32;;;31.30;99.90;;;;;;4974587;28;20030;-58
2023/08/21 12:01:16;;;;;;;13.52;8.43;;;31.40;99.90;;;;;;4974344;28;20062;-59
2023/08/21 12:03:43;;;;;;;9.45;6.93;;;31.40;99.90;;;;;;4974258;28;20057;-58
2023/08/21 12:06:10;;;;;;;15.80;6.70;;;31.40;99.90;;;;;;4973797;28;20034;-58
2023/08/21 12:08:37;;;;;;;11.18;6.75;;;31.50;99.90;;;;;;4974439;28;20534;-58
2023/08/21 12:11:03;;;;;;;16.70;7.10;;;31.50;99.90;;;;;;4974365;28;20043;-58
2023/08/21 12:13:30;;;;;;;8.73;6.55;;;31.50;99.90;;;;;;4974483;28;20027;-57
2023/08/21 12:15:56;;;;;;;16.02;8.55;;;31.50;99.90;;;;;;4989112;28;20030;-58
2023/08/21 12:18:23;;;;;;;10.73;7.43;;;31.50;99.90;;;;;;4974128;28;20371;-58
2023/08/21 12:20:48;;;;;;;12.75;6.00;;;31.50;99.90;;;;;;4974002;28;20384;-58
2023/08/21 12:23:14;;;;;;;15.35;6.97;;;31.50;99.90;;;;;;4974230;28;20031;-58
2023/08/21 12:25:41;;;;;;;11.23;6.43;;;31.50;99.90;;;;;;4974011;28;20118;-58
2023/08/21 12:28:08;;;;;;;14.40;6.47;;;31.50;99.90;;;;;;4974106;28;20019;-58
2023/08/21 12:30:34;;;;;;;12.35;5.78;;;31.50;99.90;;;;;;4973894;28;20340;-58
2023/08/21 12:33:00;;;;;;;14.73;6.37;;;31.50;99.90;;;;;;4974207;28;20062;-58
2023/08/21 12:35:26;;;;;;;15.25;7.00;;;31.50;99.90;;;;;;4974119;28;20066;-57
2023/08/21 12:37:58;;;;;;;12.55;6.15;;;31.50;99.90;;;;;;4973918;28;20027;-58
2023/08/21 12:40:24;;;;;;;14.02;6.22;;;31.50;99.90;;;;;;4973880;28;20030;-58
2023/08/21 12:42:50;;;;;;;10.82;6.10;;;31.50;99.90;;;;;;4973750;28;20077;-58
2023/08/21 12:45:16;;;;;;;14.45;6.10;;;31.50;99.90;;;;;;4973705;28;20031;-58